Tapirai, Brazil
Current Conditions -  °F | °C
As of 8:00 AM on Monday 20 Oct 2014 (Local Time) from SBSP Reporting Station
Few Clouds Few Clouds  
Wind Chill: 70°   Ceiling: Unl
Heat Index: 70°   Visibility: 6mi
Dew Point: 61°   Wind: 9mph
Humidity: 73%   Direction: 150°SSE
Pressure: 30.06"   Gusts: NA
Location:  23.97°S, 47.51°W
Report Text: SBSP 201100Z 15008KT 9000 FEW016 21/16 Q1018
Loading
Personal Weather Stations






























Interactive Weather Map
Tropical Storm Tracking
New forecast layout! Learn more

10-Day Weather Forecast

Advertisements
Track Severe Weather on mobile